createdAt,value
2023-09-06T00:02:16.286Z,101795.66
2023-09-06T00:04:38.215Z,101784.03
2023-09-06T00:07:01.184Z,101788.81
2023-09-06T00:09:22.934Z,101790.00
2023-09-06T00:11:44.898Z,101781.13
2023-09-06T00:14:06.626Z,101783.06
2023-09-06T00:16:28.284Z,101783.84
2023-09-06T00:18:49.978Z,101789.81
2023-09-06T00:21:11.752Z,101791.78
2023-09-06T00:23:33.869Z,101786.47
2023-09-06T00:25:56.496Z,101784.09
2023-09-06T00:28:20.627Z,101792.88
2023-09-06T00:30:46.030Z,101795.25
2023-09-06T00:33:08.859Z,101793.63
2023-09-06T00:35:30.689Z,101784.44
2023-09-06T00:37:54.256Z,101787.19
2023-09-06T00:40:19.796Z,101785.16
2023-09-06T00:42:41.483Z,101787.53
2023-09-06T00:45:03.921Z,101787.53
2023-09-06T00:47:25.960Z,101793.13
2023-09-06T00:49:48.085Z,101793.94
2023-09-06T00:52:11.895Z,101790.69
2023-09-06T00:54:33.736Z,101782.28
2023-09-06T00:56:55.404Z,101774.66
2023-09-06T00:59:24.069Z,101788.66
2023-09-06T01:01:45.925Z,101784.56
2023-09-06T01:04:07.778Z,101795.69
2023-09-06T01:06:35.444Z,101791.56
2023-09-06T01:09:00.257Z,101791.06
2023-09-06T01:11:24.510Z,101798.53
2023-09-06T01:14:04.654Z,101787.69
2023-09-06T01:16:47.158Z,101792.38
2023-09-06T01:19:14.145Z,101783.84
2023-09-06T01:22:19.118Z,101793.81
2023-09-06T01:24:40.964Z,101793.34
2023-09-06T01:27:05.976Z,101798.47
2023-09-06T01:29:30.561Z,101791.59
2023-09-06T01:31:53.246Z,101807.16
2023-09-06T01:34:15.114Z,101805.53
2023-09-06T01:36:37.582Z,101800.28
2023-09-06T01:38:59.212Z,101795.44
2023-09-06T01:41:21.010Z,101799.41
2023-09-06T01:43:42.764Z,101797.38
2023-09-06T01:46:04.606Z,101796.50
2023-09-06T01:48:26.624Z,101800.50
2023-09-06T01:50:49.344Z,101796.47
2023-09-06T01:53:10.999Z,101794.44
2023-09-06T01:55:32.633Z,101792.34
2023-09-06T01:57:55.327Z,101788.31
2023-09-06T02:00:20.662Z,101793.47
2023-09-06T02:02:42.366Z,101792.25
2023-09-06T02:05:04.350Z,101800.22
2023-09-06T02:07:27.763Z,101794.63
2023-09-06T02:09:50.016Z,101802.63
2023-09-06T02:12:12.115Z,101799.38
2023-09-06T02:14:35.433Z,101806.19
2023-09-06T02:16:58.260Z,101810.53
2023-09-06T02:21:43.613Z,101807.25
2023-09-06T02:24:05.755Z,101816.38
2023-09-06T02:26:27.409Z,101821.53
2023-09-06T02:28:51.781Z,101821.13
2023-09-06T02:31:13.688Z,101817.06
2023-09-06T02:33:35.451Z,101816.19
2023-09-06T02:35:57.156Z,101824.50
2023-09-06T02:38:18.890Z,101821.63
2023-09-06T02:40:44.094Z,101813.59
2023-09-06T02:43:06.220Z,101829.94
2023-09-06T02:45:37.943Z,101826.72
2023-09-06T02:47:59.743Z,101827.88
2023-09-06T02:50:25.774Z,101835.03
2023-09-06T02:52:47.672Z,101831.78
2023-09-06T02:55:12.001Z,101835.78
2023-09-06T02:57:35.565Z,101831.75
2023-09-06T02:59:58.028Z,101828.13
2023-09-06T03:02:20.702Z,101827.25
2023-09-06T03:04:42.865Z,101831.59
2023-09-06T03:07:11.230Z,101833.94
2023-09-06T03:09:33.390Z,101833.91
2023-09-06T03:11:55.704Z,101833.00
2023-09-06T03:14:18.819Z,101834.13
2023-09-06T03:16:40.977Z,101832.78
2023-09-06T03:19:11.989Z,101833.47
2023-09-06T03:21:35.959Z,101840.44
2023-09-06T03:24:00.551Z,101837.13
2023-09-06T03:26:24.027Z,101834.25
2023-09-06T03:28:45.806Z,101834.91
2023-09-06T03:31:14.372Z,101842.84
2023-09-06T03:33:37.535Z,101838.00
2023-09-06T03:35:59.292Z,101840.72
2023-09-06T03:38:26.413Z,101845.41
2023-09-06T03:40:50.664Z,101847.72
2023-09-06T03:43:16.704Z,101842.06
2023-09-06T03:45:38.436Z,101840.81
2023-09-06T03:48:01.877Z,101843.53
2023-09-06T03:50:25.077Z,101837.50
2023-09-06T03:52:46.996Z,101841.03
2023-09-06T03:55:11.062Z,101840.13
2023-09-06T03:57:32.724Z,101838.44
2023-09-06T03:59:54.451Z,101844.72
2023-09-06T04:02:16.446Z,101839.88
2023-09-06T04:04:39.260Z,101843.03
2023-09-06T04:07:01.852Z,101844.56
2023-09-06T04:09:29.264Z,101842.16
2023-09-06T04:11:50.956Z,101843.22
2023-09-06T04:14:12.651Z,101854.28
2023-09-06T04:16:38.254Z,101857.81
2023-09-06T04:19:02.255Z,101863.75
2023-09-06T04:21:23.989Z,101859.34
2023-09-06T04:23:46.054Z,101856.09
2023-09-06T04:26:11.415Z,101863.31
2023-09-06T04:28:33.333Z,101860.06
2023-09-06T04:30:55.953Z,101861.69
2023-09-06T04:33:20.116Z,101869.59
2023-09-06T04:35:50.569Z,101868.78
2023-09-06T04:38:17.791Z,101866.34
2023-09-06T04:40:45.655Z,101865.94
2023-09-06T04:43:10.441Z,101869.88
2023-09-06T04:45:33.802Z,101865.47
2023-09-06T04:47:57.607Z,101863.84
2023-09-06T04:50:19.663Z,101857.84
2023-09-06T04:52:48.382Z,101865.38
2023-09-06T04:55:13.292Z,101867.75
2023-09-06T04:57:38.007Z,101870.88
2023-09-06T04:59:59.961Z,101862.50
2023-09-06T05:02:21.646Z,101863.66
2023-09-06T05:04:45.133Z,101870.41
2023-09-06T05:07:07.069Z,101871.59
2023-09-06T05:09:29.042Z,101873.22
2023-09-06T05:11:50.847Z,101873.56
2023-09-06T05:14:12.522Z,101876.00
2023-09-06T05:16:35.607Z,101885.16
2023-09-06T05:18:57.438Z,101885.16
2023-09-06T05:21:22.974Z,101892.72
2023-09-06T05:23:44.829Z,101899.91
2023-09-06T05:26:07.395Z,101898.41
2023-09-06T05:28:34.241Z,101896.44
2023-09-06T05:30:58.294Z,101898.84
2023-09-06T05:33:20.199Z,101902.88
2023-09-06T05:35:43.395Z,101903.00
2023-09-06T05:38:06.137Z,101906.25
2023-09-06T05:40:30.901Z,101904.72
2023-09-06T05:42:54.170Z,101901.66
2023-09-06T05:45:20.849Z,101910.56
2023-09-06T05:47:42.643Z,101910.28
2023-09-06T05:50:07.591Z,101911.63
2023-09-06T05:52:30.002Z,101914.94
2023-09-06T05:54:55.792Z,101916.66
2023-09-06T05:57:19.608Z,101921.16
2023-09-06T05:59:42.202Z,101913.25
2023-09-06T06:02:04.252Z,101919.34
2023-09-06T06:04:26.681Z,101919.50
2023-09-06T06:06:48.698Z,101912.13
2023-09-06T06:09:12.635Z,101913.09
2023-09-06T06:11:34.263Z,101915.25
2023-09-06T06:14:08.102Z,101915.78
2023-09-06T06:16:32.148Z,101921.97
2023-09-06T06:18:53.934Z,101919.69
2023-09-06T06:21:15.835Z,101928.66
2023-09-06T06:23:37.576Z,101927.66
2023-09-06T06:25:59.360Z,101921.84
2023-09-06T06:28:21.187Z,101937.16
2023-09-06T06:30:43.900Z,101933.75
2023-09-06T06:33:08.589Z,101930.31
2023-09-06T06:35:30.706Z,101926.13
2023-09-06T06:37:52.415Z,101931.59
2023-09-06T06:40:14.157Z,101933.16
2023-09-06T06:42:36.461Z,101930.75
2023-09-06T06:45:03.377Z,101935.63
2023-09-06T06:47:25.141Z,101926.78
2023-09-06T06:49:46.826Z,101932.75
2023-09-06T06:52:08.624Z,101936.16
2023-09-06T06:54:30.386Z,101936.81
2023-09-06T06:56:52.581Z,101934.22
2023-09-06T06:59:14.772Z,101934.00
2023-09-06T07:01:37.665Z,101932.53
2023-09-06T07:03:59.852Z,101937.44
2023-09-06T07:06:26.326Z,101931.53
2023-09-06T07:08:48.143Z,101941.25
2023-09-06T07:11:11.597Z,101934.94
2023-09-06T07:13:35.817Z,101936.25
2023-09-06T07:15:58.668Z,101930.31
2023-09-06T07:18:20.386Z,101931.59
2023-09-06T07:20:43.464Z,101937.69
2023-09-06T07:23:05.407Z,101940.13
2023-09-06T07:25:29.082Z,101942.63
2023-09-06T07:27:50.807Z,101937.53
2023-09-06T07:30:12.542Z,101946.81
2023-09-06T07:32:34.387Z,101939.25
2023-09-06T07:34:56.100Z,101947.34
2023-09-06T07:37:17.833Z,101943.78
2023-09-06T07:39:39.487Z,101939.00
2023-09-06T07:42:01.163Z,101941.41
2023-09-06T07:44:23.172Z,101945.53
2023-09-06T07:46:49.555Z,101945.94
2023-09-06T07:49:11.711Z,101937.53
2023-09-06T07:51:33.679Z,101941.19
2023-09-06T07:53:56.730Z,101943.19
2023-09-06T07:56:18.657Z,101948.03
2023-09-06T07:58:40.406Z,101954.47
2023-09-06T08:01:17.217Z,101954.47
2023-09-06T08:03:41.132Z,101956.84
2023-09-06T08:06:05.380Z,101962.09
2023-09-06T08:08:27.390Z,101957.66
2023-09-06T08:10:49.398Z,101958.00
2023-09-06T08:13:11.660Z,101960.47
2023-09-06T08:15:35.081Z,101959.22
2023-09-06T08:17:56.799Z,101960.81
2023-09-06T08:20:19.416Z,101960.81
2023-09-06T08:22:45.213Z,101963.19
2023-09-06T08:25:07.283Z,101955.09
2023-09-06T08:27:29.073Z,101956.66
2023-09-06T08:29:50.981Z,101953.00
2023-09-06T08:32:13.336Z,101953.75
2023-09-06T08:34:35.489Z,101949.28
2023-09-06T08:36:57.957Z,101954.03
2023-09-06T08:39:19.808Z,101955.16
2023-09-06T08:41:44.567Z,101946.59
2023-09-06T08:44:12.458Z,101948.56
2023-09-06T08:46:42.920Z,101952.53
2023-09-06T08:49:05.782Z,101951.22
2023-09-06T08:51:36.938Z,101954.03
2023-09-06T08:54:00.894Z,101955.16
2023-09-06T08:56:22.822Z,101954.28
2023-09-06T08:58:45.378Z,101942.97
2023-09-06T09:01:07.389Z,101952.19
2023-09-06T09:03:29.869Z,101947.31
2023-09-06T09:05:52.234Z,101946.47
2023-09-06T09:08:13.967Z,101952.03
2023-09-06T09:10:35.931Z,101946.72
2023-09-06T09:12:59.650Z,101945.38
2023-09-06T09:15:28.045Z,101944.53
2023-09-06T09:18:00.048Z,101949.72
2023-09-06T09:20:22.820Z,101936.66
2023-09-06T09:22:46.647Z,101945.88
2023-09-06T09:25:21.761Z,101950.56
2023-09-06T09:27:46.680Z,101945.50
2023-09-06T09:30:09.767Z,101951.41
2023-09-06T09:32:33.338Z,101943.13
2023-09-06T09:34:55.848Z,101942.97
2023-09-06T09:37:17.576Z,101939.56
2023-09-06T09:39:39.614Z,101943.41
2023-09-06T09:42:02.050Z,101944.03
2023-09-06T09:44:23.785Z,101948.75
2023-09-06T09:46:47.317Z,101950.22
2023-09-06T09:49:11.557Z,101933.88
2023-09-06T09:51:35.674Z,101939.00
2023-09-06T09:53:57.937Z,101940.09
2023-09-06T09:56:23.605Z,101943.59
2023-09-06T09:58:48.016Z,101931.41
2023-09-06T10:01:10.098Z,101936.19
2023-09-06T10:03:35.618Z,101930.94
2023-09-06T10:05:59.486Z,101933.72
2023-09-06T10:08:23.320Z,101926.88
2023-09-06T10:10:45.957Z,101933.34
2023-09-06T10:13:11.277Z,101925.50
2023-09-06T10:15:34.536Z,101925.66
2023-09-06T10:17:58.734Z,101924.72
2023-09-06T10:20:24.578Z,101921.09
2023-09-06T10:22:47.636Z,101921.53
2023-09-06T10:25:11.362Z,101920.56
2023-09-06T10:27:34.181Z,101920.50
2023-09-06T10:30:04.750Z,101918.00
2023-09-06T10:32:42.839Z,101917.88
2023-09-06T10:35:25.184Z,101913.19
2023-09-06T10:38:17.276Z,101911.78
2023-09-06T10:41:02.019Z,101914.84
2023-09-06T10:43:30.033Z,101910.63
2023-09-06T10:46:19.502Z,101912.94
2023-09-06T10:48:41.602Z,101913.22
2023-09-06T10:51:14.266Z,101914.56
2023-09-06T10:53:40.403Z,101912.34
2023-09-06T10:56:04.067Z,101906.28
2023-09-06T10:58:26.002Z,101901.16
2023-09-06T11:01:11.081Z,101896.00
2023-09-06T11:03:33.273Z,101908.88
2023-09-06T11:05:57.808Z,101899.09
2023-09-06T11:08:26.726Z,101899.78
2023-09-06T11:10:48.780Z,101900.88
2023-09-06T11:13:12.997Z,101899.59
2023-09-06T11:15:39.113Z,101900.41
2023-09-06T11:18:01.144Z,101888.94
2023-09-06T11:20:23.500Z,101900.81
2023-09-06T11:22:58.051Z,101906.69
2023-09-06T11:25:22.985Z,101896.44
2023-09-06T11:27:46.524Z,101893.16
2023-09-06T11:30:12.202Z,101899.09
2023-09-06T11:32:34.539Z,101889.56
2023-09-06T11:34:56.766Z,101897.53
2023-09-06T11:37:20.728Z,101891.41
2023-09-06T11:39:47.003Z,101891.72
2023-09-06T11:42:16.660Z,101884.09
2023-09-06T11:44:44.363Z,101894.34
2023-09-06T11:47:08.181Z,101878.84
2023-09-06T11:49:31.322Z,101877.50
2023-09-06T11:51:55.244Z,101875.13
2023-09-06T11:54:17.495Z,101877.84
2023-09-06T11:56:44.017Z,101874.09
2023-09-06T11:59:13.724Z,101873.88
2023-09-06T12:01:41.484Z,101864.78
2023-09-06T12:04:04.158Z,101866.38
2023-09-06T12:06:29.419Z,101867.50
2023-09-06T12:08:52.367Z,101860.03
2023-09-06T12:11:22.991Z,101860.72
2023-09-06T12:13:44.773Z,101854.91
2023-09-06T12:16:12.576Z,101864.47
2023-09-06T12:18:36.873Z,101863.47
2023-09-06T12:21:00.139Z,101861.53
2023-09-06T12:23:22.320Z,101855.13
2023-09-06T12:25:44.028Z,101863.22
2023-09-06T12:28:06.059Z,101855.38
2023-09-06T12:30:28.667Z,101853.66
2023-09-06T12:32:50.704Z,101858.31
2023-09-06T12:35:16.425Z,101851.59
2023-09-06T12:37:40.658Z,101853.06
2023-09-06T12:40:11.728Z,101855.91
2023-09-06T12:42:33.610Z,101845.66
2023-09-06T12:44:55.567Z,101852.03
2023-09-06T12:47:20.065Z,101842.91
2023-09-06T12:49:41.728Z,101840.72
2023-09-06T12:52:04.875Z,101833.66
2023-09-06T12:54:26.533Z,101839.09
2023-09-06T12:56:48.156Z,101838.81
2023-09-06T12:59:10.260Z,101836.31
2023-09-06T13:01:31.971Z,101834.59
2023-09-06T13:03:54.116Z,101830.50
2023-09-06T13:06:16.826Z,101828.88
2023-09-06T13:08:38.719Z,101824.00
2023-09-06T13:11:00.781Z,101824.97
2023-09-06T13:13:22.513Z,101822.03
2023-09-06T13:15:44.214Z,101822.03
2023-09-06T13:18:05.996Z,101823.41
2023-09-06T13:20:27.783Z,101820.84
2023-09-06T13:22:49.511Z,101825.19
2023-09-06T13:25:12.769Z,101824.94
2023-09-06T13:27:36.134Z,101823.09
2023-09-06T13:29:58.412Z,101817.38
2023-09-06T13:32:20.184Z,101819.44
2023-09-06T13:34:42.255Z,101815.13
2023-09-06T13:37:05.585Z,101817.50
2023-09-06T13:39:28.172Z,101813.75
2023-09-06T13:41:50.006Z,101804.38
2023-09-06T13:44:11.746Z,101810.88
2023-09-06T13:46:34.648Z,101809.97
2023-09-06T13:48:59.557Z,101808.22
2023-09-06T13:51:21.475Z,101809.50
2023-09-06T13:53:44.653Z,101805.22
2023-09-06T13:56:06.485Z,101802.59
2023-09-06T13:58:32.857Z,101803.56
2023-09-06T14:00:57.020Z,101796.00
2023-09-06T14:03:18.936Z,101796.63
2023-09-06T14:05:42.667Z,101795.06
2023-09-06T14:08:04.882Z,101799.03
2023-09-06T14:10:26.667Z,101794.34
2023-09-06T14:12:48.422Z,101795.47
2023-09-06T14:15:10.942Z,101797.50
2023-09-06T14:17:32.795Z,101791.50
2023-09-06T14:19:54.643Z,101793.41
2023-09-06T14:22:16.479Z,101788.03
2023-09-06T14:24:39.127Z,101784.84
2023-09-06T14:27:00.959Z,101784.69
2023-09-06T14:29:22.723Z,101785.19
2023-09-06T14:31:44.550Z,101785.38
2023-09-06T14:34:06.370Z,101782.53
2023-09-06T14:36:28.130Z,101783.00
2023-09-06T14:38:49.944Z,101776.94
2023-09-06T14:41:11.663Z,101780.94
2023-09-06T14:43:33.667Z,101773.47
2023-09-06T14:46:07.231Z,101778.72
2023-09-06T14:48:30.173Z,101777.44
2023-09-06T14:50:58.963Z,101773.34
2023-09-06T14:53:20.815Z,101779.38
2023-09-06T14:55:42.525Z,101774.91
2023-09-06T14:58:05.259Z,101771.75
2023-09-06T15:00:27.518Z,101769.22
2023-09-06T15:02:51.204Z,101772.72
2023-09-06T15:05:14.964Z,101771.44
2023-09-06T15:07:36.766Z,101772.25
2023-09-06T15:09:59.110Z,101773.84
2023-09-06T15:12:20.876Z,101771.78
2023-09-06T15:14:42.719Z,101775.41
2023-09-06T15:17:04.915Z,101777.50
2023-09-06T15:19:26.652Z,101780.34
2023-09-06T15:21:48.424Z,101781.28
2023-09-06T15:24:10.629Z,101779.53
2023-09-06T15:26:33.066Z,101777.16
2023-09-06T15:28:54.771Z,101780.94
2023-09-06T15:31:21.242Z,101788.03
2023-09-06T15:33:44.038Z,101779.78
2023-09-06T15:36:10.044Z,101782.44
2023-09-06T15:38:32.043Z,101779.38
2023-09-06T15:40:53.865Z,101774.28
2023-09-06T15:43:15.635Z,101773.94
2023-09-06T15:45:37.893Z,101769.19
2023-09-06T15:48:00.487Z,101770.41
2023-09-06T15:50:25.089Z,101772.63
2023-09-06T15:52:48.552Z,101770.69
2023-09-06T15:55:10.294Z,101765.59
2023-09-06T15:57:31.909Z,101768.59
2023-09-06T15:59:53.615Z,101759.38
2023-09-06T16:02:15.831Z,101766.03
2023-09-06T16:04:39.017Z,101757.56
2023-09-06T16:07:00.811Z,101756.94
2023-09-06T16:09:22.510Z,101753.75
2023-09-06T16:11:44.191Z,101759.91
2023-09-06T16:14:06.796Z,101768.97
2023-09-06T16:16:29.271Z,101763.69
2023-09-06T16:18:52.745Z,101756.97
2023-09-06T16:21:14.568Z,101765.66
2023-09-06T16:23:36.303Z,101774.38
2023-09-06T16:25:58.032Z,101761.00
2023-09-06T16:28:19.648Z,101767.66
2023-09-06T16:30:42.973Z,101760.03
2023-09-06T16:33:06.937Z,101767.78
2023-09-06T16:35:29.809Z,101770.31
2023-09-06T16:37:51.930Z,101769.19
2023-09-06T16:40:14.990Z,101765.66
2023-09-06T16:42:37.073Z,101764.97
2023-09-06T16:44:58.726Z,101768.63
2023-09-06T16:47:20.490Z,101773.66
2023-09-06T16:49:43.709Z,101766.63
2023-09-06T16:52:08.868Z,101766.06
2023-09-06T16:54:30.689Z,101758.56
2023-09-06T16:56:52.423Z,101768.94
2023-09-06T16:59:16.113Z,101759.38
2023-09-06T17:01:37.917Z,101758.03
2023-09-06T17:03:59.956Z,101763.50
2023-09-06T17:06:23.722Z,101760.78
2023-09-06T17:08:45.444Z,101759.78
2023-09-06T17:11:07.388Z,101755.56
2023-09-06T17:13:29.488Z,101758.28
2023-09-06T17:15:51.375Z,101760.22
2023-09-06T17:18:14.612Z,101767.38
2023-09-06T17:20:36.424Z,101762.03
2023-09-06T17:22:59.215Z,101761.81
2023-09-06T17:25:22.090Z,101757.13
2023-09-06T17:27:44.189Z,101754.94
2023-09-06T17:30:20.417Z,101747.84
2023-09-06T17:33:04.539Z,101758.44
2023-09-06T17:35:27.645Z,101764.31
2023-09-06T17:37:49.370Z,101756.78
2023-09-06T17:40:12.074Z,101753.72
2023-09-06T17:42:33.767Z,101752.28
2023-09-06T17:44:59.950Z,101757.50
2023-09-06T17:47:21.726Z,101755.69
2023-09-06T17:49:43.760Z,101762.47
2023-09-06T17:52:06.954Z,101764.84
2023-09-06T17:54:30.216Z,101764.31
2023-09-06T17:56:52.463Z,101756.94
2023-09-06T17:59:14.676Z,101765.00
2023-09-06T18:01:37.237Z,101763.03
2023-09-06T18:03:59.950Z,101773.56
2023-09-06T18:06:28.572Z,101767.00
2023-09-06T18:08:55.235Z,101772.22
2023-09-06T18:11:18.164Z,101772.59
2023-09-06T18:13:42.468Z,101777.75
2023-09-06T18:16:06.927Z,101770.75
2023-09-06T18:18:29.061Z,101778.66
2023-09-06T18:20:56.171Z,101781.34
2023-09-06T18:23:20.112Z,101781.13
2023-09-06T18:25:42.214Z,101778.88
2023-09-06T18:28:09.362Z,101790.38
2023-09-06T18:30:31.449Z,101789.28
2023-09-06T18:32:53.247Z,101785.00
2023-09-06T18:35:17.340Z,101792.00
2023-09-06T18:37:39.765Z,101790.50
2023-09-06T18:40:16.597Z,101786.19
2023-09-06T18:42:38.385Z,101788.31
2023-09-06T18:45:00.292Z,101789.22
2023-09-06T18:47:21.984Z,101794.56
2023-09-06T18:49:45.230Z,101798.75
2023-09-06T18:52:08.726Z,101794.41
2023-09-06T18:54:30.475Z,101798.97
2023-09-06T18:56:52.300Z,101800.66
2023-09-06T18:59:14.136Z,101803.56
2023-09-06T19:01:35.862Z,101804.09
2023-09-06T19:03:57.741Z,101809.84
2023-09-06T19:06:19.462Z,101811.50
2023-09-06T19:08:42.166Z,101813.19
2023-09-06T19:11:05.592Z,101815.31
2023-09-06T19:13:27.679Z,101825.44
2023-09-06T19:15:49.643Z,101819.88
2023-09-06T19:18:11.442Z,101823.19
2023-09-06T19:20:34.121Z,101827.25
2023-09-06T19:22:56.108Z,101833.34
2023-09-06T19:25:18.042Z,101828.16
2023-09-06T19:27:40.863Z,101832.63
2023-09-06T19:30:03.860Z,101823.41
2023-09-06T19:32:25.662Z,101833.91
2023-09-06T19:34:49.467Z,101826.25
2023-09-06T19:37:11.149Z,101833.94
2023-09-06T19:39:33.796Z,101829.53
2023-09-06T19:41:57.465Z,101829.19
2023-09-06T19:44:19.264Z,101835.69
2023-09-06T19:46:41.082Z,101844.97
2023-09-06T19:49:06.819Z,101836.56
2023-09-06T19:51:30.874Z,101835.00
2023-09-06T19:53:52.608Z,101832.66
2023-09-06T19:56:18.140Z,101834.69
2023-09-06T19:58:39.831Z,101839.53
2023-09-06T20:01:01.521Z,101842.00
2023-09-06T20:03:23.544Z,101844.03
2023-09-06T20:05:47.768Z,101841.69
2023-09-06T20:08:09.675Z,101840.06
2023-09-06T20:10:31.426Z,101833.66
2023-09-06T20:12:53.034Z,101840.94
2023-09-06T20:15:16.056Z,101847.78
2023-09-06T20:17:38.256Z,101848.22
2023-09-06T20:20:00.500Z,101849.84
2023-09-06T20:22:22.464Z,101836.94
2023-09-06T20:24:44.077Z,101850.22
2023-09-06T20:27:05.806Z,101844.19
2023-09-06T20:29:29.180Z,101844.19
2023-09-06T20:31:50.858Z,101840.16
2023-09-06T20:34:13.419Z,101845.38
2023-09-06T20:36:35.167Z,101839.38
2023-09-06T20:38:56.936Z,101844.19
2023-09-06T20:41:18.742Z,101844.63
2023-09-06T20:43:40.466Z,101852.25
2023-09-06T20:46:02.952Z,101852.25
2023-09-06T20:48:27.100Z,101853.47
2023-09-06T20:51:01.721Z,101857.09
2023-09-06T20:53:23.473Z,101853.06
2023-09-06T20:55:45.167Z,101855.50
2023-09-06T20:58:06.782Z,101855.88
2023-09-06T21:00:28.765Z,101859.91
2023-09-06T21:02:51.992Z,101861.91
2023-09-06T21:05:13.756Z,101859.91
2023-09-06T21:07:35.435Z,101864.31
2023-09-06T21:09:57.687Z,101857.88
2023-09-06T21:12:19.440Z,101854.25
2023-09-06T21:14:41.243Z,101852.63
2023-09-06T21:17:02.982Z,101863.47
2023-09-06T21:19:25.049Z,101864.25
2023-09-06T21:21:46.774Z,101863.81
2023-09-06T21:24:09.786Z,101863.03
2023-09-06T21:26:31.578Z,101865.03
2023-09-06T21:28:54.420Z,101862.59
2023-09-06T21:31:16.182Z,101869.41
2023-09-06T21:33:38.090Z,101867.00
2023-09-06T21:36:00.227Z,101864.97
2023-09-06T21:38:21.988Z,101870.19
2023-09-06T21:40:45.833Z,101876.56
2023-09-06T21:43:17.692Z,101874.13
2023-09-06T21:45:41.267Z,101886.94
2023-09-06T21:48:03.366Z,101878.09
2023-09-06T21:50:25.198Z,101885.25
2023-09-06T21:52:47.056Z,101896.06
2023-09-06T21:55:10.585Z,101891.19
2023-09-06T21:57:33.365Z,101893.59
2023-09-06T21:59:55.083Z,101895.13
2023-09-06T22:02:16.760Z,101891.09
2023-09-06T22:04:57.407Z,101899.09
2023-09-06T22:07:37.603Z,101894.22
2023-09-06T22:10:18.523Z,101887.78
2023-09-06T22:12:59.046Z,101895.75
2023-09-06T22:15:21.072Z,101882.88
2023-09-06T22:17:43.424Z,101892.47
2023-09-06T22:20:06.714Z,101886.00
2023-09-06T22:22:28.493Z,101885.19
2023-09-06T22:24:50.251Z,101881.09
2023-09-06T22:27:12.209Z,101880.28
2023-09-06T22:29:34.618Z,101883.41
2023-09-06T22:31:56.841Z,101881.78
2023-09-06T22:34:20.778Z,101878.13
2023-09-06T22:36:42.998Z,101886.50
2023-09-06T22:39:06.382Z,101887.28
2023-09-06T22:41:28.066Z,101884.47
2023-09-06T22:43:49.864Z,101877.19
2023-09-06T22:46:11.700Z,101876.34
2023-09-06T22:48:53.309Z,101879.94
2023-09-06T22:51:16.366Z,101883.91
2023-09-06T22:53:38.809Z,101877.00
2023-09-06T22:56:00.455Z,101876.56
2023-09-06T22:58:22.284Z,101879.28
2023-09-06T23:00:44.090Z,101876.78
2023-09-06T23:03:05.871Z,101885.56
2023-09-06T23:05:27.661Z,101881.53
2023-09-06T23:07:49.699Z,101879.94
2023-09-06T23:10:13.072Z,101881.50
2023-09-06T23:12:34.920Z,101879.06
2023-09-06T23:14:56.715Z,101876.63
2023-09-06T23:17:23.788Z,101876.19
2023-09-06T23:19:48.170Z,101877.75
2023-09-06T23:22:13.535Z,101874.16
2023-09-06T23:24:39.001Z,101876.94
2023-09-06T23:27:00.939Z,101883.28
2023-09-06T23:29:24.038Z,101876.44
2023-09-06T23:31:54.609Z,101875.22
2023-09-06T23:34:23.028Z,101873.56
2023-09-06T23:36:44.840Z,101874.31
2023-09-06T23:39:06.973Z,101867.84
2023-09-06T23:41:28.970Z,101869.81
2023-09-06T23:43:52.718Z,101878.94
2023-09-06T23:46:14.716Z,101870.44
2023-09-06T23:48:36.582Z,101870.00
2023-09-06T23:50:58.797Z,101868.31
2023-09-06T23:53:22.025Z,101869.09
2023-09-06T23:55:43.912Z,101871.78
2023-09-06T23:58:05.860Z,101870.09
